createdAt,value
2018-11-14T00:00:30.882Z,88.04
2018-11-14T00:03:00.506Z,88.81
2018-11-14T00:05:29.038Z,89.34
2018-11-14T00:07:57.671Z,88.55
2018-11-14T00:10:26.356Z,89.27
2018-11-14T00:12:54.981Z,89.17
2018-11-14T00:15:24.712Z,89.61
2018-11-14T00:17:53.654Z,88.91
2018-11-14T00:20:22.196Z,89.68
2018-11-14T00:22:51.397Z,90.00
2018-11-14T00:25:20.014Z,89.54
2018-11-14T00:27:48.673Z,89.68
2018-11-14T00:30:21.816Z,90.01
2018-11-14T00:32:50.482Z,90.77
2018-11-14T00:35:19.039Z,90.08
2018-11-14T00:37:47.991Z,89.89
2018-11-14T00:40:17.766Z,89.63
2018-11-14T00:42:46.875Z,89.19
2018-11-14T00:45:18.076Z,89.64
2018-11-14T00:47:47.547Z,89.20
2018-11-14T00:50:16.891Z,88.98
2018-11-14T00:52:45.965Z,88.23
2018-11-14T00:55:16.589Z,88.05
2018-11-14T00:57:46.553Z,87.78
2018-11-14T01:00:19.813Z,87.87
2018-11-14T01:02:48.441Z,87.50
2018-11-14T01:05:17.518Z,88.19
2018-11-14T01:07:46.101Z,87.75
2018-11-14T01:10:16.310Z,87.43
2018-11-14T01:12:45.288Z,87.29
2018-11-14T01:15:15.869Z,87.11
2018-11-14T01:17:44.654Z,87.77
2018-11-14T01:20:15.165Z,86.96
2018-11-14T01:22:44.189Z,87.11
2018-11-14T01:25:13.696Z,87.91
2018-11-14T01:27:42.658Z,87.14
2018-11-14T01:30:13.831Z,87.55
2018-11-14T01:32:42.789Z,87.37
2018-11-14T01:35:11.411Z,87.39
2018-11-14T01:37:40.079Z,86.82
2018-11-14T01:40:12.241Z,87.43
2018-11-14T01:42:40.838Z,88.17
2018-11-14T01:45:10.746Z,88.50
2018-11-14T01:47:39.290Z,88.58
2018-11-14T01:50:09.153Z,89.21
2018-11-14T01:52:37.997Z,88.96
2018-11-14T01:55:08.294Z,90.29
2018-11-14T01:57:36.859Z,90.59
2018-11-14T02:00:08.386Z,90.60
2018-11-14T02:02:36.955Z,91.21
2018-11-14T02:05:06.772Z,91.31
2018-11-14T02:07:35.594Z,90.71
2018-11-14T02:10:04.564Z,90.21
2018-11-14T02:12:33.095Z,89.90
2018-11-14T02:15:01.709Z,90.22
2018-11-14T02:17:30.285Z,89.35
2018-11-14T02:19:58.837Z,88.90
2018-11-14T02:22:27.399Z,89.17
2018-11-14T02:24:55.952Z,89.37
2018-11-14T02:27:24.453Z,89.06
2018-11-14T02:29:53.641Z,88.20
2018-11-14T02:32:22.146Z,89.25
2018-11-14T02:34:50.721Z,88.95
2018-11-14T02:37:19.281Z,88.68
2018-11-14T02:39:47.834Z,88.66
2018-11-14T02:42:16.370Z,88.45
2018-11-14T02:44:44.982Z,88.20
2018-11-14T02:47:13.601Z,88.01
2018-11-14T02:49:42.167Z,87.87
2018-11-14T02:52:10.754Z,87.45
2018-11-14T02:54:39.287Z,88.29
2018-11-14T02:57:07.840Z,87.76
2018-11-14T02:59:36.747Z,88.15
2018-11-14T03:02:06.311Z,88.45
2018-11-14T03:04:35.197Z,88.40
2018-11-14T03:07:03.745Z,87.80
2018-11-14T03:09:32.327Z,87.57
2018-11-14T03:12:00.946Z,88.31
2018-11-14T03:14:29.508Z,88.27
2018-11-14T03:16:58.039Z,87.99
2018-11-14T03:19:26.590Z,87.75
2018-11-14T03:21:55.154Z,88.08
2018-11-14T03:24:23.702Z,88.46
2018-11-14T03:26:52.253Z,87.48
2018-11-14T03:29:20.833Z,87.61
2018-11-14T03:31:49.372Z,87.52
2018-11-14T03:34:18.073Z,87.45
2018-11-14T03:36:46.762Z,87.86
2018-11-14T03:39:15.286Z,87.80
2018-11-14T03:41:43.855Z,87.51
2018-11-14T03:44:12.474Z,87.53
2018-11-14T03:46:41.002Z,88.04
2018-11-14T03:49:09.502Z,87.96
2018-11-14T03:51:38.056Z,87.76
2018-11-14T03:54:06.581Z,88.81
2018-11-14T03:56:35.121Z,88.33
2018-11-14T03:59:04.879Z,88.89
2018-11-14T04:01:33.421Z,89.42
2018-11-14T04:04:01.945Z,89.50
2018-11-14T04:06:30.509Z,89.48
2018-11-14T04:08:59.033Z,89.75
2018-11-14T04:11:27.565Z,89.05
2018-11-14T04:13:56.141Z,89.72
2018-11-14T04:16:24.721Z,89.83
2018-11-14T04:18:53.335Z,89.01
2018-11-14T04:21:21.899Z,89.91
2018-11-14T04:23:51.178Z,88.82
2018-11-14T04:26:19.815Z,89.19
2018-11-14T04:28:48.369Z,89.21
2018-11-14T04:31:17.199Z,88.45
2018-11-14T04:33:45.782Z,88.61
2018-11-14T04:36:14.376Z,88.44
2018-11-14T04:38:43.067Z,88.73
2018-11-14T04:41:11.590Z,89.72
2018-11-14T04:43:40.138Z,89.76
2018-11-14T04:46:08.716Z,89.48
2018-11-14T04:48:37.237Z,90.36
2018-11-14T04:51:06.570Z,90.18
2018-11-14T04:53:35.110Z,89.66
2018-11-14T04:56:03.626Z,89.78
2018-11-14T04:58:32.186Z,89.80
2018-11-14T05:01:00.706Z,90.79
2018-11-14T05:03:29.296Z,90.79
2018-11-14T05:05:58.197Z,90.35
2018-11-14T05:08:26.774Z,90.24
2018-11-14T05:10:55.437Z,91.22
2018-11-14T05:13:23.994Z,90.75
2018-11-14T05:15:52.521Z,91.43
2018-11-14T05:18:21.089Z,90.50
2018-11-14T05:20:49.636Z,91.58
2018-11-14T05:23:18.181Z,90.69
2018-11-14T05:25:46.763Z,90.82
2018-11-14T05:28:15.353Z,90.95
2018-11-14T05:30:43.870Z,90.42
2018-11-14T05:33:12.392Z,90.44
2018-11-14T05:35:40.997Z,90.13
2018-11-14T05:38:09.513Z,89.78
2018-11-14T05:40:38.218Z,89.93
2018-11-14T05:43:06.790Z,89.38
2018-11-14T05:45:35.370Z,89.35
2018-11-14T05:48:04.937Z,89.07
2018-11-14T05:50:33.573Z,89.73
2018-11-14T05:53:02.134Z,89.39
2018-11-14T05:55:30.650Z,89.41
2018-11-14T05:57:59.270Z,88.80
2018-11-14T06:00:31.476Z,89.61
2018-11-14T06:03:01.520Z,89.88
2018-11-14T06:05:30.041Z,89.51
2018-11-14T06:07:58.609Z,89.95
2018-11-14T06:10:27.265Z,90.34
2018-11-14T06:12:55.809Z,90.09
2018-11-14T06:15:24.893Z,89.70
2018-11-14T06:17:54.700Z,90.17
2018-11-14T06:20:23.446Z,89.97
2018-11-14T06:22:52.664Z,90.37
2018-11-14T06:25:25.994Z,90.55
2018-11-14T06:27:55.359Z,91.44
2018-11-14T06:30:24.463Z,90.94
2018-11-14T06:32:53.486Z,91.09
2018-11-14T06:35:22.257Z,90.42
2018-11-14T06:37:51.482Z,89.97
2018-11-14T06:40:20.402Z,89.59
2018-11-14T06:42:49.150Z,89.33
2018-11-14T06:45:19.057Z,89.01
2018-11-14T06:47:48.937Z,88.48
2018-11-14T06:50:17.613Z,87.95
2018-11-14T06:52:47.294Z,87.67
2018-11-14T06:55:16.850Z,87.73
2018-11-14T06:57:45.472Z,87.21
2018-11-14T07:00:31.512Z,87.50
2018-11-14T07:03:01.392Z,87.37
2018-11-14T07:05:30.019Z,87.16
2018-11-14T07:07:58.735Z,86.33
2018-11-14T07:10:29.847Z,86.15
2018-11-14T07:13:03.513Z,86.44
2018-11-14T07:15:32.082Z,85.49
2018-11-14T07:18:01.651Z,85.89
2018-11-14T07:20:32.518Z,85.86
2018-11-14T07:23:01.069Z,85.11
2018-11-14T07:25:29.634Z,84.46
2018-11-14T07:27:58.664Z,84.91
2018-11-14T07:30:28.406Z,84.19
2018-11-14T07:33:03.433Z,84.15
2018-11-14T07:35:32.025Z,83.81
2018-11-14T07:38:37.160Z,83.51
2018-11-14T07:41:07.363Z,83.81
2018-11-14T07:43:36.878Z,82.51
2018-11-14T07:46:06.085Z,82.93
2018-11-14T07:48:34.938Z,81.24
2018-11-14T07:51:03.618Z,81.60
2018-11-14T07:53:32.460Z,82.36
2018-11-14T07:56:01.003Z,81.44
2018-11-14T07:58:29.552Z,81.24
2018-11-14T08:00:58.326Z,81.48
2018-11-14T08:03:26.983Z,80.77
2018-11-14T08:05:55.976Z,81.06
2018-11-14T08:08:24.652Z,79.99
2018-11-14T08:10:53.537Z,81.18
2018-11-14T08:13:26.289Z,80.22
2018-11-14T08:15:56.785Z,80.78
2018-11-14T08:18:25.998Z,80.93
2018-11-14T08:20:54.897Z,80.16
2018-11-14T08:23:23.794Z,79.80
2018-11-14T08:25:52.358Z,79.79
2018-11-14T08:28:21.033Z,80.28
2018-11-14T08:30:49.580Z,80.41
2018-11-14T08:33:18.126Z,80.75
2018-11-14T08:35:46.761Z,79.77
2018-11-14T08:38:15.349Z,79.48
2018-11-14T08:40:43.890Z,77.92
2018-11-14T08:43:12.838Z,77.72
2018-11-14T08:45:41.729Z,76.56
2018-11-14T08:48:11.970Z,77.04
2018-11-14T08:50:42.229Z,77.63
2018-11-14T08:53:11.385Z,77.15
2018-11-14T08:55:39.925Z,77.83
2018-11-14T08:58:10.809Z,77.53
2018-11-14T09:00:39.841Z,78.46
2018-11-14T09:03:10.323Z,77.56
2018-11-14T09:05:38.925Z,77.79
2018-11-14T09:08:07.576Z,78.24
2018-11-14T09:10:36.189Z,77.82
2018-11-14T09:13:04.936Z,78.07
2018-11-14T09:15:33.574Z,77.42
2018-11-14T09:18:02.147Z,77.60
2018-11-14T09:20:30.738Z,77.29
2018-11-14T09:22:59.273Z,77.67
2018-11-14T09:25:29.654Z,76.30
2018-11-14T09:27:58.740Z,76.17
2018-11-14T09:30:27.657Z,76.68
2018-11-14T09:32:56.304Z,75.71
2018-11-14T09:35:25.903Z,75.79
2018-11-14T09:37:55.865Z,75.08
2018-11-14T09:40:25.835Z,75.69
2018-11-14T09:42:54.379Z,76.00
2018-11-14T09:45:25.125Z,75.63
2018-11-14T09:47:53.810Z,76.06
2018-11-14T09:50:23.642Z,75.99
2018-11-14T09:52:55.424Z,75.49
2018-11-14T09:55:24.013Z,75.72
2018-11-14T09:57:52.550Z,75.21
2018-11-14T10:00:23.443Z,75.19
2018-11-14T10:02:55.599Z,74.89
2018-11-14T10:05:25.488Z,75.24
2018-11-14T10:07:54.280Z,75.82
2018-11-14T10:10:23.457Z,75.19
2018-11-14T10:12:52.361Z,75.25
2018-11-14T10:15:23.041Z,75.21
2018-11-14T10:17:51.655Z,74.39
2018-11-14T10:20:21.565Z,71.82
2018-11-14T10:22:50.114Z,71.79
2018-11-14T10:25:19.086Z,70.92
2018-11-14T10:27:48.355Z,71.62
2018-11-14T10:30:21.444Z,71.76
2018-11-14T10:32:50.646Z,72.45
2018-11-14T10:35:19.184Z,72.63
2018-11-14T10:37:47.731Z,72.09
2018-11-14T10:40:19.673Z,71.56
2018-11-14T10:42:48.246Z,71.65
2018-11-14T10:45:18.542Z,71.67
2018-11-14T10:47:47.210Z,71.30
2018-11-14T10:50:19.378Z,72.07
2018-11-14T10:52:48.396Z,71.35
2018-11-14T11:06:58.534Z,71.26
2018-11-14T11:09:32.362Z,70.23
2018-11-14T11:12:06.055Z,70.98
2018-11-14T11:14:37.169Z,71.43
2018-11-14T11:17:10.956Z,71.27
2018-11-14T11:19:39.817Z,69.98
2018-11-14T11:22:08.396Z,70.51
2018-11-14T11:24:36.957Z,71.49
2018-11-14T11:27:05.636Z,71.26
2018-11-14T11:29:34.245Z,71.38
2018-11-14T11:32:03.331Z,71.91
2018-11-14T11:34:32.117Z,72.34
2018-11-14T11:37:00.698Z,71.09
2018-11-14T11:39:29.287Z,71.60
2018-11-14T11:41:57.909Z,71.37
2018-11-14T11:44:26.538Z,71.31
2018-11-14T11:46:55.264Z,70.86
2018-11-14T11:49:23.984Z,70.89
2018-11-14T11:51:52.745Z,71.47
2018-11-14T11:54:21.325Z,72.24
2018-11-14T11:56:49.928Z,72.47
2018-11-14T11:59:18.500Z,72.46
2018-11-14T12:01:47.266Z,72.91
2018-11-14T12:04:15.822Z,73.32
2018-11-14T12:06:44.347Z,73.58
2018-11-14T12:09:13.417Z,75.49
2018-11-14T12:11:41.981Z,75.71
2018-11-14T12:14:10.513Z,75.21
2018-11-14T12:16:39.114Z,74.24
2018-11-14T12:19:07.810Z,74.22
2018-11-14T12:21:36.693Z,74.03
2018-11-14T12:24:05.486Z,74.11
2018-11-14T12:26:34.053Z,73.79
2018-11-14T12:29:02.574Z,73.80
2018-11-14T12:31:31.126Z,74.03
2018-11-14T12:33:59.734Z,73.84
2018-11-14T12:36:28.326Z,74.88
2018-11-14T12:38:56.892Z,73.81
2018-11-14T12:41:25.593Z,72.47
2018-11-14T12:43:54.097Z,71.39
2018-11-14T12:46:22.634Z,70.61
2018-11-14T12:48:51.262Z,71.57
2018-11-14T12:51:20.175Z,70.81
2018-11-14T12:53:48.860Z,72.01
2018-11-14T12:56:17.413Z,71.64
2018-11-14T12:58:45.945Z,72.37
2018-11-14T13:01:14.481Z,73.31
2018-11-14T13:03:43.152Z,72.84
2018-11-14T13:06:11.685Z,73.91
2018-11-14T13:08:40.286Z,76.08
2018-11-14T13:11:09.179Z,77.21
2018-11-14T13:13:43.070Z,78.11
2018-11-14T13:16:11.734Z,78.42
2018-11-14T13:18:40.301Z,79.29
2018-11-14T13:21:09.257Z,79.37
2018-11-14T13:23:37.856Z,78.52
2018-11-14T13:26:06.565Z,79.55
2018-11-14T13:28:35.113Z,81.10
2018-11-14T13:31:03.753Z,80.93
2018-11-14T13:33:32.312Z,80.32
2018-11-14T13:36:00.912Z,81.26
2018-11-14T13:38:29.492Z,80.33
2018-11-14T13:40:58.030Z,80.62
2018-11-14T13:43:26.565Z,80.61
2018-11-14T13:45:55.257Z,80.16
2018-11-14T13:48:23.870Z,79.41
2018-11-14T13:50:52.407Z,79.49
2018-11-14T13:53:21.973Z,78.95
2018-11-14T13:55:50.739Z,79.21
2018-11-14T13:58:19.266Z,80.01
2018-11-14T14:00:47.845Z,79.94
2018-11-14T14:03:16.391Z,81.13
2018-11-14T14:05:44.914Z,82.61
2018-11-14T14:08:13.531Z,82.77
2018-11-14T14:10:42.070Z,83.26
2018-11-14T14:13:10.659Z,83.55
2018-11-14T14:15:39.589Z,84.08
2018-11-14T14:18:08.152Z,84.61
2018-11-14T14:20:36.676Z,83.64
2018-11-14T14:23:05.804Z,84.05
2018-11-14T14:25:34.337Z,84.06
2018-11-14T14:28:02.893Z,84.17
2018-11-14T14:30:31.433Z,83.29
2018-11-14T14:32:59.973Z,82.87
2018-11-14T14:35:28.542Z,83.04
2018-11-14T14:37:57.135Z,82.82
2018-11-14T14:40:25.875Z,81.66
2018-11-14T14:42:54.413Z,82.04
2018-11-14T14:45:24.884Z,82.07
2018-11-14T14:47:53.456Z,82.21
2018-11-14T14:50:22.031Z,82.25
2018-11-14T14:52:50.633Z,82.68
2018-11-14T14:55:21.123Z,83.60
2018-11-14T14:57:49.761Z,83.09
2018-11-14T15:00:23.930Z,83.49
2018-11-14T15:02:52.869Z,83.97
2018-11-14T15:05:21.430Z,84.87
2018-11-14T15:07:49.989Z,84.93
2018-11-14T15:10:19.940Z,85.36
2018-11-14T15:12:48.534Z,85.81
2018-11-14T15:15:17.468Z,86.03
2018-11-14T15:17:46.081Z,85.86
2018-11-14T15:20:16.875Z,86.54
2018-11-14T15:22:45.625Z,86.57
2018-11-14T15:25:15.564Z,86.36
2018-11-14T15:27:44.547Z,86.94
2018-11-14T15:30:15.823Z,86.53
2018-11-14T15:32:44.362Z,87.42
2018-11-14T15:35:13.554Z,86.76
2018-11-14T15:37:42.154Z,86.87
2018-11-14T15:40:12.615Z,86.96
2018-11-14T15:42:41.263Z,86.88
2018-11-14T15:45:13.622Z,87.42
2018-11-14T15:47:42.329Z,88.01
2018-11-14T15:50:14.209Z,87.46
2018-11-14T15:52:44.066Z,87.65
2018-11-14T15:55:21.585Z,87.38
2018-11-14T15:57:50.330Z,87.20
2018-11-14T16:00:28.356Z,87.67
2018-11-14T16:02:57.094Z,87.95
2018-11-14T16:05:27.091Z,88.14
2018-11-14T16:07:57.222Z,87.96
2018-11-14T16:10:26.642Z,87.27
2018-11-14T16:12:55.212Z,87.50
2018-11-14T16:15:26.190Z,88.18
2018-11-14T16:17:54.810Z,88.07
2018-11-14T16:20:24.619Z,87.96
2018-11-14T16:22:53.242Z,87.99
2018-11-14T16:25:23.220Z,88.57
2018-11-14T16:27:53.168Z,87.82
2018-11-14T16:30:30.996Z,88.69
2018-11-14T16:33:01.246Z,88.30
2018-11-14T16:35:29.858Z,88.67
2018-11-14T16:37:58.525Z,88.91
2018-11-14T16:40:30.698Z,88.59
2018-11-14T16:43:00.429Z,89.32
2018-11-14T16:45:29.013Z,89.33
2018-11-14T16:47:57.795Z,89.37
2018-11-14T16:50:26.467Z,88.90
2018-11-14T16:52:55.190Z,89.28
2018-11-14T16:55:24.148Z,89.06
2018-11-14T16:57:54.281Z,88.92
2018-11-14T17:00:30.226Z,89.34
2018-11-14T17:02:59.856Z,89.60
2018-11-14T17:05:29.619Z,89.61
2018-11-14T17:07:58.549Z,89.71
2018-11-14T17:10:27.253Z,89.72
2018-11-14T17:12:57.259Z,89.68
2018-11-14T17:15:26.973Z,89.27
2018-11-14T17:17:55.579Z,89.69
2018-11-14T17:20:24.325Z,90.50
2018-11-14T17:22:54.260Z,89.37
2018-11-14T17:25:22.926Z,89.29
2018-11-14T17:27:51.732Z,90.18
2018-11-14T17:30:22.777Z,89.51
2018-11-14T17:32:51.915Z,90.04
2018-11-14T17:35:20.831Z,90.77
2018-11-14T17:37:50.029Z,90.18
2018-11-14T17:40:28.242Z,89.60
2018-11-14T17:42:57.345Z,89.43
2018-11-14T17:45:27.247Z,89.90
2018-11-14T17:47:56.382Z,90.48
2018-11-14T17:50:29.942Z,90.27
2018-11-14T17:52:59.527Z,90.36
2018-11-14T17:55:28.448Z,90.58
2018-11-14T17:57:57.621Z,90.35
2018-11-14T18:00:27.660Z,90.61
2018-11-14T18:02:56.429Z,90.08
2018-11-14T18:05:26.388Z,90.37
2018-11-14T18:07:55.560Z,90.40
2018-11-14T18:10:28.449Z,90.73
2018-11-14T18:12:58.337Z,90.99
2018-11-14T18:15:27.099Z,90.20
2018-11-14T18:17:56.806Z,90.53
2018-11-14T18:20:27.918Z,89.70
2018-11-14T18:22:56.953Z,89.88
2018-11-14T18:25:26.492Z,90.33
2018-11-14T18:27:55.258Z,91.03
2018-11-14T18:30:25.335Z,90.10
2018-11-14T18:32:55.981Z,90.49
2018-11-14T18:35:25.368Z,91.06
2018-11-14T18:37:57.422Z,90.99
2018-11-14T18:40:37.537Z,90.87
2018-11-14T18:43:07.080Z,90.98
2018-11-14T18:45:36.476Z,91.16
2018-11-14T18:48:07.020Z,90.35
2018-11-14T18:50:36.356Z,90.58
2018-11-14T18:53:06.093Z,90.92
2018-11-14T18:55:36.036Z,91.21
2018-11-14T18:58:08.847Z,90.66
2018-11-14T19:00:38.352Z,90.73
2018-11-14T19:03:07.247Z,91.11
2018-11-14T19:05:35.839Z,90.03
2018-11-14T19:08:04.992Z,90.83
2018-11-14T19:10:34.515Z,90.63
2018-11-14T19:13:03.959Z,90.29
2018-11-14T19:15:34.260Z,90.92
2018-11-14T19:18:03.330Z,90.52
2018-11-14T19:20:34.409Z,90.26
2018-11-14T19:23:03.952Z,89.75
2018-11-14T19:25:34.198Z,90.37
2018-11-14T19:28:03.165Z,90.59
2018-11-14T19:30:33.279Z,90.18
2018-11-14T19:33:02.792Z,90.07
2018-11-14T19:35:31.870Z,90.73
2018-11-14T19:38:01.476Z,90.19
2018-11-14T19:40:32.851Z,90.68
2018-11-14T19:43:03.010Z,89.64
2018-11-14T19:45:33.874Z,90.38
2018-11-14T19:48:02.747Z,89.91
2018-11-14T19:50:31.904Z,90.19
2018-11-14T19:53:01.107Z,90.20
2018-11-14T19:55:31.602Z,90.47
2018-11-14T19:58:02.418Z,89.95
2018-11-14T20:00:32.649Z,90.11
2018-11-14T20:03:03.543Z,89.71
2018-11-14T20:05:32.284Z,90.44
2018-11-14T20:08:00.993Z,89.22
2018-11-14T20:10:31.260Z,88.80
2018-11-14T20:13:00.271Z,88.52
2018-11-14T20:15:31.092Z,88.98
2018-11-14T20:18:00.622Z,89.75
2018-11-14T20:20:33.790Z,89.73
2018-11-14T20:23:02.661Z,89.07
2018-11-14T20:25:31.463Z,88.91
2018-11-14T20:28:00.358Z,89.01
2018-11-14T20:30:30.594Z,90.06
2018-11-14T20:33:00.870Z,89.86
2018-11-14T20:35:29.687Z,90.00
2018-11-14T20:37:58.584Z,89.50
2018-11-14T20:40:27.645Z,89.45
2018-11-14T20:42:57.716Z,90.03
2018-11-14T20:45:27.954Z,89.81
2018-11-14T20:47:58.713Z,90.08
2018-11-14T20:50:28.325Z,89.72
2018-11-14T20:53:02.045Z,90.13
2018-11-14T20:55:31.272Z,90.96
2018-11-14T20:58:00.239Z,89.73
2018-11-14T21:00:33.575Z,90.87
2018-11-14T21:03:02.847Z,89.64
2018-11-14T21:05:32.543Z,89.60
2018-11-14T21:08:01.315Z,90.19
2018-11-14T21:10:31.286Z,89.47
2018-11-14T21:13:00.563Z,89.78
2018-11-14T21:15:31.169Z,89.25
2018-11-14T21:18:00.715Z,89.28
2018-11-14T21:20:29.251Z,89.55
2018-11-14T21:22:57.854Z,89.69
2018-11-14T21:25:27.611Z,90.53
2018-11-14T21:27:57.086Z,90.62
2018-11-14T21:30:27.139Z,90.61
2018-11-14T21:32:55.759Z,90.23
2018-11-14T21:35:28.584Z,91.32
2018-11-14T21:37:58.442Z,91.28
2018-11-14T21:40:27.050Z,91.69
2018-11-14T21:42:55.761Z,91.19
2018-11-14T21:45:25.824Z,90.09
2018-11-14T21:47:59.750Z,89.96
2018-11-14T21:50:29.249Z,90.95
2018-11-14T21:52:57.987Z,90.62
2018-11-14T21:55:26.791Z,91.53
2018-11-14T21:57:55.797Z,90.87
2018-11-14T22:00:25.793Z,91.23
2018-11-14T22:02:55.842Z,91.62
2018-11-14T22:05:24.468Z,92.28
2018-11-14T22:07:53.030Z,91.95
2018-11-14T22:10:22.736Z,92.05
2018-11-14T22:12:51.729Z,92.99
2018-11-14T22:15:21.497Z,93.21
2018-11-14T22:18:05.490Z,92.90
2018-11-14T22:20:34.804Z,93.68
2018-11-14T22:23:05.084Z,94.00
2018-11-14T22:25:33.737Z,94.13
2018-11-14T22:28:02.443Z,94.28
2018-11-14T22:30:32.237Z,93.79
2018-11-14T22:33:01.163Z,94.83
2018-11-14T22:35:31.357Z,94.16
2018-11-14T22:38:00.637Z,94.99
2018-11-14T22:40:30.538Z,94.85
2018-11-14T22:42:59.317Z,95.08
2018-11-14T22:45:29.283Z,95.31
2018-11-14T22:47:57.901Z,94.97
2018-11-14T22:50:27.649Z,94.93
2018-11-14T22:52:56.281Z,95.40
2018-11-14T22:55:25.737Z,94.73
2018-11-14T22:57:54.687Z,95.16
2018-11-14T23:00:28.409Z,95.34
2018-11-14T23:02:58.349Z,95.66
2018-11-14T23:05:27.130Z,95.50
2018-11-14T23:07:56.597Z,95.35
2018-11-14T23:10:25.812Z,96.23
2018-11-14T23:12:54.471Z,95.88
2018-11-14T23:15:24.037Z,95.88
2018-11-14T23:17:53.353Z,95.86
2018-11-14T23:20:22.053Z,95.94
2018-11-14T23:22:51.556Z,96.58
2018-11-14T23:25:20.526Z,96.97
2018-11-14T23:27:50.642Z,96.41
2018-11-14T23:30:20.401Z,96.92
2018-11-14T23:32:50.175Z,96.68
2018-11-14T23:35:27.794Z,96.08
2018-11-14T23:37:57.692Z,96.05
2018-11-14T23:40:26.777Z,96.30
2018-11-14T23:42:55.413Z,96.59
2018-11-14T23:45:24.841Z,96.57
2018-11-14T23:47:53.460Z,96.71
2018-11-14T23:50:23.325Z,96.51
2018-11-14T23:52:53.310Z,96.01
2018-11-14T23:55:23.177Z,96.58
2018-11-14T23:57:51.815Z,96.65
